AirNav  
 
 1450 users online  

2Y1 Drake Airport
Radcliffe, Iowa, USA

GOING TO RADCLIFFE?


FAA INFORMATION EFFECTIVE 01 FEBRUARY 2018

Location

FAA Identifier: 2Y1
Lat/Long: 42-19-03.0500N / 093-24-54.5850W
42-19.050833N / 093-24.909750W
42.3175139 / -93.4151625
(estimated)
Elevation: 1179 ft. / 359.4 m (surveyed)
Variation: 04E (1985)
From city: 1 mile E of RADCLIFFE, IA
Time zone: UTC -6 (UTC -5 during Daylight Saving Time)
Zip code: 50230

Airport Operations

Airport use: Open to the public
Activation date: 12/1959
Control tower: no
ARTCC: MINNEAPOLIS CENTER
FSS: FORT DODGE FLIGHT SERVICE STATION
NOTAMs facility: FOD (NOTAM-D service available)
Attendance: UNATNDD
Wind indicator: yes
Segmented circle: no
Lights: ACTVT LIRL RWY 09/27 - 122.8.

Airport Communications

CTAF/UNICOM: 122.8
WX AWOS-3 at IFA (11 nm NE): 120.425 (641-648-2469)

Nearby radio navigation aids

VOR radial/distance  VOR name  Freq  Var
JWJr298/25.7ELMWOOD VOR/DME109.4001E
TNUr334/34.8NEWTON VOR/DME112.5003E

 
NDB name  Hdg/Dist  Freq  Var  ID
WEBSTER CITY107/21.532303EEBS . -... ...
CLARION146/29.938703ECAV -.-. .- ...-

Airport Services

Parking: tiedowns
Airframe service: NONE
Powerplant service: NONE
Bottled oxygen: NONE
Bulk oxygen: NONE

Runway Information

Runway 9/27

Dimensions: 2480 x 90 ft. / 756 x 27 m
Surface: turf, in fair condition
Runway edge lights: non-standard
NSTD LIRL; SOLID CLEAR; THLD LGTS SOLID GREEN.
RUNWAY 9  RUNWAY 27
Latitude: 42-19.051667N42-19.050000N
Longitude: 093-25.184833W093-24.634667W
Elevation: 1173.0 ft.1172.0 ft.
Traffic pattern: leftleft
Runway heading: 087 magnetic, 091 true267 magnetic, 271 true
Obstructions: 46 ft. trees, 285 ft. from runway, 80 ft. right of centerline, 6:1 slope to clearnone

Airport Ownership and Management from official FAA records

Ownership: Privately-owned
Owner: R. DRAKE
303 EAST ST.
RADCLIFFE, IA 50230
Phone 515-899-2121
Manager: R. R. DRAKE
303 EAST ST.
RADCLIFFE, IA 50230
Phone 515-899-2169

Airport Operational Statistics

Aircraft based on the field: 3
Single engine airplanes: 3
    
Aircraft operations: 200/year *
100% local general aviation
* for 12-month period ending 08 May 2007

Additional Remarks

WINTER MONTHS CALL 515-899-2169 FOR ARPT CONDITIONS.

Instrument Procedures

There are no published instrument procedures at 2Y1.

Some nearby airports with instrument procedures:

KIFA - Iowa Falls Municipal Airport (11 nm NE)
KEBS - Webster City Municipal Airport (21 nm W)
KAMW - Ames Municipal Airport (22 nm SW)
KBNW - Boone Municipal Airport (25 nm SW)
KMIW - Marshalltown Municipal Airport (25 nm SE)
 
Loc | Ops | Rwys | IFR | FBO | Links
Com | Nav | Svcs | Stats | Notes

AirNav Hotels Sweepstakes
 
Area around 2Y1 (Drake Airport)
 
Road maps at: MapQuest Bing Google
 
Aerial photo
No photo
 
Sectional chart

 
Airport distance calculator
Flying to Drake Airport? Find the distance to fly.

From to 2Y1

Sunrise and sunset
Times for 19-Feb-2018
 Local
(UTC-6)
 Zulu
(UTC)
Morning civil twilight06:3712:37
Sunrise07:0513:05
Sunset17:5023:50
Evening civil twilight18:1800:18

Current date and time
Zulu (UTC)  19-Feb-2018 18:53:05
Local (UTC-6)  19-Feb-2018 12:53:05
 
METAR
KIFA 
11nm NE 
191835Z AUTO 02009KT 1 1/4SM BR OVC002 01/01 A2968 RMK AO2 T00100006
KEBS 
21nm W 
191835Z AUTO 36012KT 2 1/2SM -UP OVC004 00/M00 A2968 RMK AO2
KAMW 
22nm SW 
191753Z AUTO 35012KT 1 1/4SM BR OVC003 01/01 A2969 RMK AO2 RAB30E50 SLP060 P0000 60009 T00110006 10033 20011 53000
TAF
KFOD 
36nm W 
191732Z 1918/2018 36012G18KT 3SM -FZDZ OVC007 FM192000 35011G16KT P6SM OVC006 FM200600 02007KT 3SM -FZRA BR OVC005 FM201200 34009KT P6SM OVC007 FM201700 33012G18KT P6SM BKN025
NOTAMs
Click for the latest NOTAMs
NOTAMs are issued by the DoD/FAA and will open in a separate window not controlled by AirNav.

 

 
 

Would you like to see your business listed on this page?

 If your business provides an interesting product or service to pilots, flight crews, aircraft, or users of the Drake Airport, you should consider listing it here.  To start the listing process, click on the button below
 
Add a business
 

Other Pages about Drake Airport

Page from the Iowa Airport Directory
 
Update a link
 
Copyright © AirNav, LLC. All rights reserved. Privacy Policy  Contact